Latest Weather Observations for St Lawrence

IDQ60801

Issued at 8:32 am EST Tuesday 9 February 2016 (issued every 30 minutes, with the page automatically refreshed every 10 minutes)

About weather observations | Map of weather stations | Latest weather observations for QLD | Other Formats
Station Details ID: 033210 Name: ST LAWRENCE Lat: -22.35 Lon: 149.52 Height: 9.19 m
Data from the previous 72 hours. | See also: Recent months at St Lawrence
Date/Time
EST
Temp
°C
App
Temp
°C
Dew
Point
Rel
Hum
%
Delta-T
°C
Wind Press
QNH
hPa
Press
MSL
hPa
Rain
since 9 am
mm
Dir
 
Spd
km/h
Gust
km/h
Spd
kts
Gust
kts
09/08:30am 26.1 27.2 19.7 68 4.1 SSE 13 19 7 10 1012.5 1012.4 0.2
09/08:00am 25.3 26.6 20.1 73 3.4 S 13 20 7 11 1012.3 1012.2 0.2
09/07:30am 24.3 25.9 20.0 77 2.8 S 11 19 6 10 1012.1 1012.0 0.2
09/07:00am 23.8 25.5 20.1 80 2.4 S 11 15 6 8 1011.9 1011.8 0.2
09/06:30am 23.5 25.7 20.4 83 2.0 S 9 15 5 8 1011.7 1011.6 0.2
09/06:00am 22.2 24.9 20.3 89 1.2 S 6 9 3 5 1011.1 1011.0 0.2
09/05:30am 22.3 25.0 20.2 88 1.4 S 6 7 3 4 1010.6 1010.5 0.2
09/05:00am 22.3 25.0 20.2 88 1.4 S 6 7 3 4 1010.5 1010.4 0.2
09/04:30am 22.6 25.3 20.3 87 1.5 SSW 6 7 3 4 1010.3 1010.2 0.2
09/04:00am 22.8 26.4 20.5 87 1.5 S 2 6 1 3 1010.3 1010.2 0.2
09/03:30am 23.4 26.3 20.7 85 1.8 S 6 7 3 4 1010.2 1010.1 0.2
09/03:00am 23.6 26.7 21.1 86 1.6 SSW 6 7 3 4 1010.2 1010.1 0.2
09/02:30am 23.7 27.3 20.6 83 2.0 SSE 2 6 1 3 1010.2 1010.1 0.2
09/02:00am 24.3 27.5 20.6 80 2.4 S 4 7 2 4 1010.5 1010.4 0.2
09/01:30am 24.7 27.6 20.6 78 2.7 SE 6 7 3 4 1010.7 1010.6 0.2
09/01:00am 24.6 27.6 20.9 80 2.4 S 6 7 3 4 1011.1 1011.0 0.2
09/12:30am 24.7 28.0 20.8 79 2.6 SW 4 6 2 3 1011.4 1011.3 0.2
09/12:00am 25.0 29.1 20.7 77 2.8 CALM 0 6 0 3 1011.7 1011.6 0.2
 
Date/Time
EST
Temp
°C
App
Temp
°C
Dew
Point
Rel
Hum
%
Delta-T
°C
Wind Press
QNH
hPa
Press
MSL
hPa
Rain
since 9 am
mm
Dir
 
Spd
km/h
Gust
km/h
Spd
kts
Gust
kts
08/11:30pm 25.2 28.9 20.7 76 2.9 SSE 2 6 1 3 1012.1 1012.0 0.2
08/11:00pm 25.4 28.2 20.4 74 3.3 SSE 6 7 3 4 1012.0 1011.9 0.2
08/10:30pm 25.7 28.3 20.5 73 3.4 SE 7 11 4 6 1012.2 1012.1 0.2
08/10:00pm 25.8 28.7 21.0 75 3.2 SE 7 9 4 5 1012.0 1011.9 0.2
08/09:30pm 26.2 29.0 20.8 72 3.6 ESE 7 11 4 6 1012.0 1011.9 0.2
08/09:00pm 26.4 28.6 20.5 70 3.9 ESE 9 15 5 8 1011.8 1011.7 0.2
08/08:30pm 26.6 29.7 21.4 73 3.5 ESE 7 13 4 7 1011.6 1011.5 0.2
08/08:00pm 26.9 29.5 21.2 71 3.8 E 9 15 5 8 1011.4 1011.3 0.2
08/07:30pm 27.1 29.9 21.6 72 3.7 E 9 15 5 8 1010.9 1010.8 0.2
08/07:00pm 27.5 30.4 21.8 71 3.8 E 9 15 5 8 1010.5 1010.4 0.2
08/06:30pm 28.1 31.4 21.9 69 4.2 E 7 11 4 6 1010.5 1010.4 0.2
08/06:00pm 28.5 31.8 21.8 67 4.5 ESE 7 11 4 6 1010.2 1010.1 0.2
08/05:30pm 29.1 31.0 21.3 62 5.2 ESE 13 20 7 11 1009.7 1009.6 0.2
08/05:00pm 29.1 30.7 20.8 61 5.5 ESE 13 22 7 12 1009.5 1009.4 0.2
08/04:30pm 29.5 32.0 21.7 63 5.2 ESE 11 20 6 11 1009.2 1009.1 0.2
08/04:00pm 29.5 31.6 21.7 63 5.3 ESE 13 22 7 12 1009.0 1008.9 0.2
08/03:30pm 29.7 32.6 23.2 68 4.5 ESE 13 20 7 11 1008.9 1008.8 0.2
08/03:00pm 29.9 31.7 21.8 62 5.5 SE 15 20 8 11 1009.0 1008.9 0.2
08/02:30pm 30.0 32.0 22.2 63 5.3 SE 15 24 8 13 1009.3 1009.2 0.2
08/02:00pm 29.0 31.6 22.0 66 4.7 SE 11 17 6 9 1009.7 1009.6 0.2
08/01:30pm 29.1 31.0 22.1 66 4.7 SE 15 22 8 12 1010.1 1010.0 0.2
08/01:00pm 28.8 31.3 22.5 68 4.3 SE 13 20 7 11 1010.6 1010.5 0.2
08/12:30pm 27.8 30.6 22.3 72 3.7 SSE 11 17 6 9 1011.1 1011.0 0.2
08/12:00pm 27.5 30.5 22.0 72 3.7 SE 9 13 5 7 1011.5 1011.4 0.2
08/11:30am 27.1 29.8 22.1 74 3.4 SSE 11 17 6 9 1011.6 1011.5 0.2
08/11:00am 27.0 29.7 22.2 75 3.2 SSE 11 17 6 9 1011.8 1011.7 0.2
08/10:30am 27.1 30.1 22.7 77 3.0 SSE 11 17 6 9 1012.0 1011.9 0.2
08/10:00am 26.7 28.7 22.3 77 3.0 SSE 15 22 8 12 1012.1 1012.0 0.2
08/09:30am 26.2 29.7 22.9 82 2.2 SSE 9 17 5 9 1012.1 1012.0 0.2
08/09:00am 25.6 28.0 22.3 82 2.2 S 13 24 7 13 1012.0 1011.9 14.6
08/08:30am 25.0 27.4 22.3 85 1.8 S 13 20 7 11 1012.0 1011.9 14.6
08/08:00am 24.7 27.2 22.4 87 1.5 S 13 20 7 11 1012.0 1011.9 14.6
08/07:30am 24.3 27.2 22.4 89 1.3 S 11 19 6 10 1011.6 1011.5 14.6
08/07:00am 24.1 26.6 22.5 91 1.1 S 13 20 7 11 1011.6 1011.5 14.6
08/06:30am 24.0 27.0 22.6 92 0.9 S 11 17 6 9 1011.5 1011.4 14.6
08/06:00am 24.1 27.6 22.9 93 0.8 S 9 17 5 9 1011.3 1011.2 14.6
08/05:30am 24.1 27.7 23.1 94 0.7 S 9 11 5 6 1010.9 1010.8 14.6
08/05:00am 24.1 28.2 23.2 95 0.6 SSW 7 11 4 6 1010.6 1010.5 14.6
08/04:30am 24.1 28.3 23.2 95 0.6 SW 6 9 3 5 1010.4 1010.3 14.6
08/04:00am 24.1 28.3 23.2 95 0.6 SSW 6 9 3 5 1010.4 1010.3 14.6
08/03:30am 23.9 27.8 23.0 95 0.6 S 7 9 4 5 1010.2 1010.1 14.6
08/03:00am 23.9 28.0 23.0 95 0.6 SSW 6 9 3 5 1010.1 1010.0 14.4
08/02:30am 23.8 27.7 23.0 95 0.5 SSW 7 9 4 5 1009.9 1009.8 14.4
08/02:00am 23.8 27.9 23.0 95 0.5 S 6 7 3 4 1010.3 1010.2 14.4
08/01:30am 23.7 28.8 22.7 94 0.7 CALM 0 0 0 0 1010.5 1010.4 14.4
08/01:00am 23.8 27.8 22.8 94 0.7 S 6 7 3 4 1010.8 1010.7 13.6
08/12:30am 23.9 27.3 22.7 93 0.8 S 9 13 5 7 1011.0 1010.9 12.4
08/12:00am 23.8 26.8 22.6 93 0.8 S 11 13 6 7 1011.2 1011.1 12.4
 
Date/Time
EST
Temp
°C
App
Temp
°C
Dew
Point
Rel
Hum
%
Delta-T
°C
Wind Press
QNH
hPa
Press
MSL
hPa
Rain
since 9 am
mm
Dir
 
Spd
km/h
Gust
km/h
Spd
kts
Gust
kts
07/11:30pm 24.1 27.7 23.1 94 0.7 SSE 9 15 5 8 1011.4 1011.3 12.4
07/11:00pm 24.2 27.5 23.2 94 0.7 S 11 17 6 9 1011.6 1011.5 12.4
07/10:30pm 24.3 27.7 23.3 94 0.7 S 11 15 6 8 1011.7 1011.6 12.2
07/10:00pm 24.4 28.2 23.5 95 0.6 S 9 13 5 7 1011.8 1011.7 12.0
07/09:30pm 24.7 29.1 23.8 95 0.6 S 7 13 4 7 1011.6 1011.5 11.8
07/09:00pm 24.7 28.7 23.8 95 0.6 SSE 9 15 5 8 1011.2 1011.1 10.8
07/08:30pm 24.8 28.8 23.8 94 0.7 S 9 13 5 7 1011.1 1011.0 9.2
07/08:00pm 24.8 29.3 23.9 95 0.6 SSE 7 13 4 7 1010.5 1010.4 8.8
07/07:30pm 24.8 28.9 23.9 95 0.6 SSE 9 15 5 8 1010.0 1009.9 7.6
07/07:00pm 24.9 28.9 23.7 93 0.8 S 9 13 5 7 1009.7 1009.6 5.2
07/06:30pm 25.3 29.4 23.9 92 1.0 S 9 13 5 7 1009.2 1009.1 3.4
07/06:00pm 25.7 29.1 24.1 91 1.1 SSE 13 20 7 11 1008.7 1008.6 1.4
07/05:30pm 25.9 30.3 24.5 92 1.0 SSE 9 17 5 9 1008.2 1008.1 1.4
07/05:00pm 25.8 29.8 24.4 92 1.0 SSE 11 19 6 10 1007.8 1007.7 1.4
07/04:30pm 26.0 29.6 24.4 91 1.1 S 13 17 7 9 1007.8 1007.7 1.2
07/04:00pm 26.5 30.6 24.0 86 1.7 SSW 9 15 5 8 1007.7 1007.6 1.2
07/03:30pm 26.8 31.6 24.1 85 1.9 SE 6 11 3 6 1007.6 1007.5 1.0
07/03:00pm 26.5 31.4 24.3 88 1.5 SE 6 11 3 6 1007.8 1007.7 1.0
07/02:30pm 26.8 31.5 23.9 84 2.0 SE 6 9 3 5 1007.9 1007.8 0.8
07/02:00pm 27.2 31.6 24.5 85 1.9 S 9 13 5 7 1008.0 1007.9 0.2
07/01:30pm 27.4 31.7 24.3 83 2.1 SSE 9 15 5 8 1008.1 1008.0 0.2
07/01:00pm 26.7 31.0 24.2 86 1.7 ESE 9 13 5 7 1008.5 1008.4 0.2
07/12:30pm 27.3 31.5 23.5 80 2.6 SSE 7 13 4 7 1008.6 1008.5 0.2
07/12:00pm 26.8 30.8 23.7 83 2.1 SSE 9 15 5 8 1009.1 1009.0 0.2
07/11:30am 27.2 30.6 23.4 80 2.6 SSE 11 19 6 10 1009.2 1009.1 0.2
07/11:00am 26.9 30.4 22.9 79 2.7 SE 9 15 5 8 1009.5 1009.4 0.2
07/10:30am 26.7 29.6 23.2 81 2.4 SE 13 17 7 9 1009.4 1009.3 0.0
07/10:00am 26.2 29.4 23.7 86 1.7 SSE 13 20 7 11 1009.6 1009.5 0.0
07/09:30am 25.5 29.5 23.7 90 1.2 S 9 13 5 7 1009.4 1009.3 0.0
07/09:00am 24.8 28.0 23.0 90 1.2 S 11 19 6 10 1009.3 1009.2 12.6
07/08:30am 24.8 28.2 23.4 92 1.0 S 11 17 6 9 1008.9 1008.8 12.6
07/08:00am 24.4 27.3 23.2 93 0.8 S 13 19 7 10 1008.7 1008.6 12.6
07/07:30am 24.2 27.0 23.0 93 0.8 S 13 19 7 10 1008.4 1008.3 12.6
07/07:00am 24.0 26.7 22.8 93 0.8 S 13 22 7 12 1008.2 1008.1 12.4
07/06:30am 24.0 26.9 23.1 95 0.6 S 13 22 7 12 1007.8 1007.7 12.4
07/06:00am 24.2 27.9 23.3 95 0.6 S 9 15 5 8 1007.6 1007.5 12.2
07/05:30am 24.3 27.7 23.4 95 0.6 S 11 15 6 8 1007.3 1007.2 12.0
07/05:00am 24.4 28.2 23.5 95 0.6 S 9 15 5 8 1006.9 1006.8 12.0
07/04:30am 24.4 28.2 23.5 95 0.6 S 9 13 5 7 1006.6 1006.5 12.0
07/04:00am 24.6 28.9 23.7 95 0.6 S 7 13 4 7 1006.5 1006.4 11.8
07/03:30am 24.7 29.3 23.8 95 0.6 S 6 7 3 4 1006.5 1006.4 11.8
07/03:00am 24.6 29.1 23.7 95 0.6 S 6 9 3 5 1006.5 1006.4 11.6
07/02:30am 24.4 28.6 23.5 95 0.6 SSW 7 13 4 7 1006.2 1006.1 11.6
07/02:00am 24.4 29.2 23.5 95 0.6 S 4 7 2 4 1006.2 1006.1 11.6
07/01:30am 24.4 28.6 23.5 95 0.6 S 7 11 4 6 1005.9 1005.8 11.2
07/01:00am 24.5 28.7 23.5 94 0.7 SSE 7 9 4 5 1007.0 1006.9 9.2
07/12:30am 24.7 29.2 23.7 94 0.7 S 6 7 3 4 1007.6 1007.5 7.2
07/12:00am 24.7 30.4 23.7 94 0.7 CALM 0 0 0 0 1007.9 1007.8 6.2
 
Date/Time
EST
Temp
°C
App
Temp
°C
Dew
Point
Rel
Hum
%
Delta-T
°C
Wind Press
QNH
hPa
Press
MSL
hPa
Rain
since 9 am
mm
Dir
 
Spd
km/h
Gust
km/h
Spd
kts
Gust
kts
06/11:30pm 24.8 30.4 23.6 93 0.8 CALM 0 0 0 0 1008.0 1007.9 5.4
06/11:00pm 24.9 29.8 23.7 93 0.8 SSW 4 7 2 4 1008.4 1008.3 4.4
06/10:30pm 24.9 29.0 23.3 91 1.1 SSE 7 11 4 6 1008.3 1008.2 4.0
06/10:00pm 24.9 28.9 23.1 90 1.2 SSE 7 11 4 6 1008.2 1008.1 3.8
06/09:30pm 25.1 29.2 23.2 89 1.3 SE 7 11 4 6 1008.2 1008.1 3.6
06/09:00pm 25.3 29.4 23.2 88 1.4 SE 7 11 4 6 1008.0 1007.9 3.4
06/08:30pm 25.6 29.1 22.9 85 1.8 SE 9 15 5 8 1007.6 1007.5 3.4
06/08:00pm 25.7 28.9 23.0 85 1.8 SE 11 20 6 11 1007.2 1007.1 3.4
06/07:30pm 25.8 29.0 23.1 85 1.8 SE 11 15 6 8 1006.7 1006.6 3.4
06/07:00pm 26.0 28.9 23.1 84 2.0 SE 13 19 7 10 1006.3 1006.2 3.4
06/06:30pm 26.3 29.7 23.4 84 2.0 SE 11 19 6 10 1005.7 1005.6 3.4
06/06:00pm 26.2 29.6 23.3 84 2.0 ESE 11 19 6 10 1005.2 1005.1 3.4
06/05:30pm 25.6 28.7 23.5 88 1.4 SE 13 19 7 10 1004.7 1004.6 3.4
06/05:00pm 26.0 29.2 23.7 87 1.6 ESE 13 24 7 13 1004.2 1004.1 3.4
06/04:30pm 26.4 30.2 24.1 87 1.6 SE 11 20 6 11 1004.1 1004.0 3.4
06/04:00pm 27.0 31.4 25.0 89 1.4 SSE 11 15 6 8 1004.0 1003.9 3.4
06/03:30pm 26.2 30.3 24.6 91 1.1 SE 11 15 6 8 1004.4 1004.3 3.4
06/03:00pm 27.1 29.8 24.2 84 2.0 SE 17 22 9 12 1004.5 1004.4 3.0
06/02:30pm 27.8 32.2 24.4 82 2.4 SSE 9 11 5 6 1004.6 1004.5 3.0
06/02:00pm 27.4 32.1 25.0 87 1.7 SSE 9 13 5 7 1005.0 1004.9 3.0
06/01:30pm 26.1 30.8 24.9 93 0.8 S 9 13 5 7 1005.1 1005.0 3.0
06/01:00pm 25.7 29.1 24.1 91 1.1 SSE 13 20 7 11 1005.4 1005.3 1.4
06/12:30pm 26.3 30.7 25.1 93 0.8 SSE 11 17 6 9 1005.4 1005.3 1.4
06/12:00pm 25.9 30.5 24.7 93 0.8 SSE 9 13 5 7 1005.7 1005.6 1.2
06/11:30am 25.5 29.3 24.1 92 1.0 SSE 11 15 6 8 1005.9 1005.8 0.8
06/11:00am 25.3 29.3 23.7 91 1.1 SSE 9 46 5 25 1006.0 1005.9 0.8
06/10:30am 25.5 29.5 23.7 90 1.2 S 9 15 5 8 1006.1 1006.0 0.2
06/10:00am 25.7 29.7 23.7 89 1.4 S 9 15 5 8 1005.9 1005.8 0.2
06/09:30am 25.0 27.9 23.2 90 1.2 S 13 17 7 9 1005.6 1005.5 0.0
06/09:00am 24.6 27.9 23.2 92 1.0 S 11 15 6 8 1005.3 1005.2 11.6

Other Formats:

Comma delimited format used in spreadsheet applications
http://www.bom.gov.au/fwo/IDQ60801/IDQ60801.95369.axf

JavaScript Object Notation format (JSON) in row-major order
http://www.bom.gov.au/fwo/IDQ60801/IDQ60801.95369.json